Wakonda, South Dakota
Current Conditions -  °F | °C
As of 6:15 AM on Monday 24 Nov 2014 (Local Time) from KYKN Reporting Station
Overcast Overcast  
Wind Chill: 10°   Ceiling: 2100
Heat Index: 25°   Visibility: 10mi
Dew Point: 14°   Wind: 22mph
Humidity: 64%   Direction: 310°NW
Pressure: 29.63"   Gusts: 35mph
Location:  43.01°N, 97.11°W
Report Text: KYKN 241215Z AUTO 31019G30KT 10SM OVC021 M04/M10 A2963 RMK AO1
Loading
Personal Weather Stations






























Interactive Weather Map New forecast layout! Learn more

10-Day Weather Forecast

Advertisements
Track Severe Weather on mobile